Hlavní strana
METAR-TAF:

METAR-TAF

Letiště :

Stord, Norsko

zeměpisná šířka: 59-48N, zeměpisná délka: 005-21E, výška: 49 m

Aktuální stav počasí

Zpráva byla vytvořena před 2 hodinami a 25 minutami, v 17:20 UTC
Severozápadní vítr 16 kt
Teplota 5°C
Vlhkost vzduchu 56%
Tlak 1026 hPa
Viditelnost 10 km a více
Skoro jasno ve výšce 3000 ft, Vertikální cumulus.
Polojasno ve výšce 6400 ft

METAR: ENSO 131720Z 32016KT 9999 FEW030TCU SCT064 05/M03 Q1026

Čas: 21:45 (19:45 UTC)

Předpověď počasí

Zpráva byla vytvořena před 5 hodinami a 45 minutami, v 14:00 UTC
Předpověď platná od 13 v 15 UTC do 13 v 18 UTC
Severoseverozápadní vítr 18 kt
Viditelnost 10 km a více
Polojasno ve výšce 3000 ft, Vertikální cumulus.
Pravděpodobnost 30% :
Dočasný
od 13 v 15 UTC do 13 v 18 UTC
Polojasno ve výšce 1800 ft, Cumulonimbus.
Oblačno až skoro zataženo ve výšce 3500 ft
dešťové přeháňky, malé kroupy nebo krupky

TAF: ENSO 131400Z 1315/1318 33018KT 9999 SCT030TCU PROB30 TEMPO 1315/1318 SHRAGS SCT018CB BKN035

Stav a předpovědi počasí z více než 4 000 letišť (zprávy METAR a TAF).

Červené a žluté tečky na mapě představují dostupné meteorologické stanice.

Když kurzor umístíte na tečku, zobrazí se název stanice.

Pak kliknutím zobrazíte stav a předpověď počasí.

Chcete-li změnit mapu, kliknutím na zelené tlačítko se znaménkem +mapu přiblížíte, kliknutím na zelené tlačítko se znaménkem – mapu oddálíte a kliknutím na zelené šipky přejdete na sousední mapy.


METAR-TAF: